createdAt,value
2019-04-29T00:04:12.483Z,5.37
2019-04-29T00:09:18.970Z,5.77
2019-04-29T00:14:24.831Z,6.07
2019-04-29T00:19:45.521Z,6.15
2019-04-29T00:29:58.150Z,6.10
2019-04-29T00:35:04.018Z,7.97
2019-04-29T00:40:30.754Z,7.13
2019-04-29T00:45:36.476Z,6.33
2019-04-29T00:50:41.760Z,4.93
2019-04-29T00:55:48.741Z,5.10
2019-04-29T01:00:54.239Z,4.97
2019-04-29T01:05:59.650Z,4.33
2019-04-29T01:11:05.306Z,4.10
2019-04-29T01:16:10.741Z,4.17
2019-04-29T01:21:16.127Z,4.17
2019-04-29T01:26:33.946Z,5.53
2019-04-29T01:31:39.411Z,5.97
2019-04-29T01:36:46.035Z,5.77
2019-04-29T01:42:03.711Z,4.27
2019-04-29T01:47:25.326Z,3.97
2019-04-29T01:52:55.993Z,3.50
2019-04-29T01:58:15.235Z,4.10
2019-04-29T02:03:37.659Z,4.13
2019-04-29T02:08:55.839Z,6.17
2019-04-29T02:14:31.435Z,6.73
2019-04-29T02:19:58.583Z,5.53
2019-04-29T02:25:27.007Z,6.55
2019-04-29T02:30:58.743Z,6.60
2019-04-29T02:36:30.427Z,6.27
2019-04-29T02:42:00.864Z,5.63
2019-04-29T02:47:23.598Z,5.37
2019-04-29T02:52:46.520Z,5.20
2019-04-29T02:58:18.780Z,5.10
2019-04-29T03:04:04.259Z,5.00
2019-04-29T03:09:45.253Z,4.90
2019-04-29T03:14:57.467Z,4.80
2019-04-29T03:20:43.034Z,4.93
2019-04-29T03:26:05.968Z,5.73
2019-04-29T03:31:23.284Z,6.47
2019-04-29T03:36:48.444Z,5.60
2019-04-29T03:42:09.800Z,5.23
2019-04-29T03:47:38.316Z,5.37
2019-04-29T03:52:56.609Z,5.10
2019-04-29T03:58:19.211Z,5.00
2019-04-29T04:03:46.276Z,5.00
2019-04-29T04:09:24.392Z,5.60
2019-04-29T04:14:44.266Z,6.23
2019-04-29T04:20:20.883Z,5.73
2019-04-29T04:25:45.707Z,6.20
2019-04-29T04:31:06.733Z,7.20
2019-04-29T04:36:24.394Z,5.90
2019-04-29T04:41:46.091Z,5.30
2019-04-29T04:47:04.493Z,5.20
2019-04-29T04:52:26.960Z,5.13
2019-04-29T04:57:53.624Z,5.07
2019-04-29T05:03:21.263Z,5.33
2019-04-29T05:08:47.870Z,5.60
2019-04-29T05:14:10.378Z,6.07
2019-04-29T05:19:42.668Z,6.17
2019-04-29T05:25:12.423Z,6.80
2019-04-29T05:30:31.786Z,6.43
2019-04-29T05:36:09.774Z,6.87
2019-04-29T05:41:47.569Z,6.47
2019-04-29T05:47:13.981Z,8.03
2019-04-29T05:52:54.683Z,7.03
2019-04-29T05:58:27.398Z,7.57
2019-04-29T06:04:06.148Z,7.37
2019-04-29T06:09:32.988Z,7.33
2019-04-29T06:14:59.205Z,7.87
2019-04-29T06:20:25.640Z,9.90
2019-04-29T06:25:34.506Z,10.30
2019-04-29T06:30:53.318Z,9.00
2019-04-29T06:36:22.853Z,7.45
2019-04-29T06:41:45.320Z,9.63
2019-04-29T06:47:03.944Z,9.50
2019-04-29T06:52:22.641Z,9.80
2019-04-29T06:57:46.370Z,9.50
2019-04-29T07:03:12.507Z,8.10
2019-04-29T07:08:34.163Z,8.60
2019-04-29T07:13:59.233Z,9.60
2019-04-29T07:19:26.583Z,9.50
2019-04-29T07:24:35.867Z,9.43
2019-04-29T07:30:09.395Z,7.30
2019-04-29T07:35:27.654Z,8.17
2019-04-29T07:40:53.504Z,7.25
2019-04-29T07:46:28.311Z,7.73
2019-04-29T07:51:34.890Z,7.20
2019-04-29T07:57:12.460Z,6.57
2019-04-29T08:03:10.202Z,4.90
2019-04-29T08:08:21.372Z,4.20
2019-04-29T08:13:28.897Z,3.70
2019-04-29T08:18:44.676Z,4.93
2019-04-29T08:24:15.428Z,6.10
2019-04-29T08:29:21.595Z,6.43
2019-04-29T08:34:40.947Z,8.67
2019-04-29T08:40:03.477Z,11.20
2019-04-29T08:45:15.563Z,11.97
2019-04-29T08:50:50.442Z,11.77
2019-04-29T08:56:01.339Z,9.40
2019-04-29T09:01:35.888Z,9.60
2019-04-29T09:07:12.850Z,6.87
2019-04-29T09:12:24.211Z,6.50
2019-04-29T09:18:03.878Z,6.77
2019-04-29T09:23:12.534Z,5.77
2019-04-29T09:28:28.152Z,5.25
2019-04-29T09:34:06.641Z,3.60
2019-04-29T09:40:09.598Z,4.73
2019-04-29T09:45:40.475Z,5.93
2019-04-29T09:51:29.693Z,4.70
2019-04-29T09:57:02.406Z,2.90
2019-04-29T10:02:18.716Z,2.33
2019-04-29T10:07:49.731Z,2.97
2019-04-29T10:12:56.897Z,2.27
2019-04-29T10:18:09.304Z,2.80
2019-04-29T10:23:16.750Z,3.87
2019-04-29T10:28:24.624Z,4.57
2019-04-29T10:33:33.797Z,3.13
2019-04-29T10:38:40.400Z,2.40
2019-04-29T10:44:44.085Z,2.10
2019-04-29T10:49:58.044Z,1.10
2019-04-29T10:55:15.622Z,1.90
2019-04-29T11:00:52.735Z,1.50
2019-04-29T11:12:00.771Z,2.30
2019-04-29T11:18:03.549Z,2.63
2019-04-29T11:23:22.779Z,2.90
2019-04-29T11:28:58.929Z,3.27
2019-04-29T11:34:33.246Z,2.57
2019-04-29T11:39:51.717Z,1.90
2019-04-29T11:45:20.674Z,3.23
2019-04-29T11:51:02.239Z,3.30
2019-04-29T11:56:23.171Z,4.30
2019-04-29T12:02:05.687Z,4.33
2019-04-29T12:07:32.594Z,4.60
2019-04-29T12:12:47.714Z,6.23
2019-04-29T12:18:23.828Z,7.93
2019-04-29T12:23:52.001Z,3.70
2019-04-29T12:29:09.510Z,4.80
2019-04-29T12:34:39.228Z,4.77
2019-04-29T12:39:54.397Z,5.47
2019-04-29T12:45:30.941Z,4.10
2019-04-29T12:50:57.614Z,5.20
2019-04-29T12:56:16.988Z,3.97
2019-04-29T13:01:58.837Z,5.23
2019-04-29T13:07:43.308Z,4.07
2019-04-29T13:12:52.359Z,3.43
2019-04-29T13:18:32.589Z,5.47
2019-04-29T13:24:13.847Z,4.70
2019-04-29T13:29:26.782Z,5.43
2019-04-29T13:34:56.019Z,4.30
2019-04-29T13:40:23.703Z,4.20
2019-04-29T13:45:58.660Z,4.37
2019-04-29T13:51:35.758Z,2.93
2019-04-29T13:56:55.281Z,2.35
2019-04-29T14:02:16.459Z,3.33
2019-04-29T14:07:39.625Z,2.73
2019-04-29T14:13:09.750Z,3.10
2019-04-29T14:18:27.628Z,2.30
2019-04-29T14:23:52.021Z,4.05
2019-04-29T14:29:11.890Z,3.83
2019-04-29T14:34:44.695Z,3.00
2019-04-29T14:40:09.426Z,4.87
2019-04-29T14:45:34.167Z,3.00
2019-04-29T14:51:05.302Z,2.30
2019-04-29T14:56:34.756Z,3.90
2019-04-29T15:01:48.904Z,3.63
2019-04-29T15:07:15.916Z,3.70
2019-04-29T15:12:51.022Z,4.40
2019-04-29T15:18:15.480Z,4.47
2019-04-29T15:23:29.413Z,5.00
2019-04-29T15:28:59.499Z,1.92
2019-04-29T15:34:09.019Z,4.00
2019-04-29T15:39:28.563Z,2.63
2019-04-29T15:44:55.884Z,3.77
2019-04-29T15:50:26.669Z,3.20
2019-04-29T15:56:06.167Z,5.10
2019-04-29T16:01:18.231Z,4.17
2019-04-29T16:06:58.549Z,7.37
2019-04-29T16:12:15.412Z,4.50
2019-04-29T16:17:38.124Z,3.30
2019-04-29T16:22:41.420Z,2.85
2019-04-29T16:28:05.110Z,2.70
2019-04-29T16:33:30.069Z,3.57
2019-04-29T16:43:53.616Z,3.80
2019-04-29T16:48:59.171Z,2.40
2019-04-29T16:54:04.808Z,3.60
2019-04-29T16:59:10.455Z,3.57
2019-04-29T17:04:15.956Z,2.70
2019-04-29T17:09:29.987Z,3.07
2019-04-29T17:19:42.909Z,3.52
2019-04-29T17:24:48.806Z,3.50
2019-04-29T17:30:07.538Z,3.50
2019-04-29T17:35:17.897Z,5.40
2019-04-29T17:35:19.683Z,4.13
2019-04-29T17:40:23.768Z,3.30
2019-04-29T17:45:37.122Z,5.30
2019-04-29T17:50:48.085Z,4.30
2019-04-29T17:56:00.037Z,4.30
2019-04-29T18:01:07.912Z,3.60
2019-04-29T18:06:24.456Z,4.10
2019-04-29T18:11:26.277Z,4.10
2019-04-29T18:16:39.558Z,4.13
2019-04-29T18:22:03.994Z,3.00
2019-04-29T18:27:15.315Z,2.80
2019-04-29T18:32:32.873Z,3.60
2019-04-29T18:37:30.430Z,4.33
2019-04-29T18:42:38.375Z,4.23
2019-04-29T18:47:43.009Z,3.60
2019-04-29T18:52:48.467Z,3.13
2019-04-29T18:57:56.462Z,3.83
2019-04-29T19:03:01.284Z,2.30
2019-04-29T19:08:14.013Z,2.70
2019-04-29T19:13:16.606Z,2.23
2019-04-29T19:18:21.364Z,2.30
2019-04-29T19:23:29.623Z,1.93
2019-04-29T19:28:34.694Z,1.72
2019-04-29T19:33:41.969Z,2.65
2019-04-29T19:38:47.491Z,1.80
2019-04-29T19:43:55.244Z,2.17
2019-04-29T19:49:08.036Z,1.67
2019-04-29T19:54:07.768Z,2.00
2019-04-29T19:59:14.771Z,2.20
2019-04-29T20:04:30.698Z,2.87
2019-04-29T20:09:38.317Z,2.83
2019-04-29T20:14:44.298Z,3.17
2019-04-29T20:20:00.090Z,2.90
2019-04-29T20:25:06.019Z,2.40
2019-04-29T20:30:18.862Z,1.80
2019-04-29T20:35:18.700Z,2.33
2019-04-29T20:40:26.824Z,2.00
2019-04-29T20:45:35.383Z,1.90
2019-04-29T20:50:41.311Z,2.15
2019-04-29T20:55:48.530Z,2.23
2019-04-29T21:00:58.175Z,2.03
2019-04-29T21:06:03.138Z,1.70
2019-04-29T21:11:20.836Z,1.60
2019-04-29T21:16:29.171Z,1.27
2019-04-29T21:21:36.772Z,1.40
2019-04-29T21:26:44.613Z,1.57
2019-04-29T21:31:50.797Z,1.63
2019-04-29T21:37:06.647Z,1.60
2019-04-29T21:42:20.027Z,1.13
2019-04-29T21:47:28.239Z,1.57
2019-04-29T21:52:32.953Z,1.50
2019-04-29T21:57:38.408Z,1.60
2019-04-29T22:02:46.632Z,1.80
2019-04-29T22:07:51.248Z,1.60
2019-04-29T22:13:01.975Z,2.40
2019-04-29T22:18:07.234Z,2.10
2019-04-29T22:23:13.096Z,2.07
2019-04-29T22:28:19.852Z,2.20
2019-04-29T22:33:29.448Z,2.63
2019-04-29T22:38:32.508Z,2.40
2019-04-29T22:43:45.804Z,2.40
2019-04-29T22:48:51.576Z,2.90
2019-04-29T22:53:57.034Z,3.00
2019-04-29T22:59:02.408Z,2.93
2019-04-29T23:04:09.654Z,2.53
2019-04-29T23:09:14.895Z,2.40
2019-04-29T23:14:21.297Z,2.97
2019-04-29T23:19:26.869Z,2.40
2019-04-29T23:24:41.057Z,2.70
2019-04-29T23:29:46.556Z,3.27
2019-04-29T23:34:55.005Z,3.80
2019-04-29T23:40:01.226Z,3.20
2019-04-29T23:45:07.350Z,2.83
2019-04-29T23:50:14.013Z,3.17
2019-04-29T23:55:20.526Z,3.87
